Terminal Aerodrome Forecast
Issued by NWS Pittsburgh, PA

Current Version | Previous Version | Graphics & Text | Print | Product List | Glossary On
Versions: 1 2 3 4 5 6 7 8 9 10 11 12 13 14 15 16 17 18 19 20 21 22 23 24 25 26 27 28 29 30 31 32
000
FTUS41 KPBZ 181003 AAB
TAFPIT
TAF AMD
KPIT 181003Z 1810/1912 26008KT P6SM OVC025
      TEMPO 1810/1812 3SM -SN OVC010
     FM181800 21005KT P6SM SKC
     FM191000 17006KT P6SM BKN025=

USA.gov is the U.S. government's official web portal to all federal, state and local government web resources and services.